Time;durP1;ratioP1;P1;durP2;ratioP2;P2;SDS_P1;SDS_P2;PMS_P1;PMS_P2;Temp;Humidity;BMP_temperature;BMP_pressure;BME280_temperature;BME280_humidity;BME280_pressure;Samples;Min_cycle;Max_cycle;Signal;HPM_P1;HPM_P2
2022/12/04 00:00:53;;;;;;;24.40;17.13;;;;;;;2.90;73.40;100656.44;4953475;29;20058;-89
2022/12/04 00:03:58;;;;;;;21.38;16.30;;;;;;;2.96;73.16;100650.31;4953526;29;20082;-90
2022/12/04 00:07:05;;;;;;;22.98;17.10;;;;;;;2.79;73.52;100660.97;4953288;29;20421;-89
2022/12/04 00:10:09;;;;;;;25.10;17.73;;;;;;;2.85;74.39;100654.84;4953234;29;20540;-90
2022/12/04 00:13:12;;;;;;;22.50;16.50;;;;;;;3.07;73.74;100663.06;4953095;29;20050;-91
2022/12/04 00:16:18;;;;;;;22.38;15.80;;;;;;;3.14;73.53;100662.91;4953193;29;20046;-92
2022/12/04 00:19:25;;;;;;;22.63;16.88;;;;;;;3.16;73.03;100661.16;4914915;29;20051;-91
2022/12/04 00:22:28;;;;;;;23.67;17.48;;;;;;;3.12;72.40;100662.06;4915351;29;20094;-93
2022/12/04 00:25:32;;;;;;;;;;;;;;;3.05;72.98;100662.22;4915767;29;20050;-93
2022/12/04 00:28:41;;;;;;;25.38;16.20;;;;;;;3.02;72.65;100661.38;4915042;29;19922;-92
2022/12/04 00:31:45;;;;;;;20.35;15.38;;;;;;;3.29;71.88;100660.88;4915300;29;20113;-92
2022/12/04 00:34:51;;;;;;;22.67;16.05;;;;;;;3.06;73.00;100667.34;5011105;28;20040;-91
2022/12/04 00:37:55;;;;;;;23.10;17.23;;;;;;;3.06;72.89;100661.34;5014157;28;20049;-93
2022/12/04 00:41:01;;;;;;;22.10;16.75;;;;;;;2.99;73.14;100661.44;5013577;28;20049;-92
2022/12/04 00:44:07;;;;;;;21.08;15.13;;;;;;;3.08;73.42;100657.00;5013696;28;20129;-92
2022/12/04 00:47:13;;;;;;;21.92;16.50;;;;;;;2.95;73.63;100653.81;5013900;28;20060;-91
2022/12/04 00:50:17;;;;;;;22.67;15.90;;;;;;;2.92;72.93;100662.44;5014340;28;20075;-92
2022/12/04 00:53:21;;;;;;;;;;;;;;;3.11;72.72;100656.94;5013465;28;20520;-92
2022/12/04 00:56:29;;;;;;;20.33;15.70;;;;;;;3.03;73.17;100663.13;5013601;28;19964;-92
2022/12/04 00:59:33;;;;;;;22.92;17.33;;;;;;;3.15;72.69;100664.59;5013614;28;20080;-92
2022/12/04 01:02:36;;;;;;;;;;;;;;;2.92;73.57;100665.03;5014146;28;20100;-91
2022/12/04 01:05:46;;;;;;;21.67;14.90;;;;;;;2.98;73.01;100658.91;5014122;28;19919;-92
2022/12/04 01:08:51;;;;;;;22.45;15.95;;;;;;;3.15;73.51;100663.75;5019513;28;20092;-93
2022/12/04 01:11:54;;;;;;;22.77;15.75;;;;;;;2.88;73.56;100657.38;5013551;28;20523;-91
2022/12/04 01:15:00;;;;;;;21.30;15.48;;;;;;;3.08;73.19;100651.84;5013601;28;20052;-91
2022/12/04 01:18:04;;;;;;;21.50;14.85;;;;;;;3.09;73.25;100648.34;5035717;28;20103;-90
2022/12/04 01:21:07;;;;;;;19.85;14.52;;;;;;;3.05;72.97;100644.16;5052872;28;20051;-93
2022/12/04 01:24:11;;;;;;;23.02;15.85;;;;;;;3.10;72.69;100650.09;5052962;28;20040;-92
2022/12/04 01:27:18;;;;;;;22.48;15.88;;;;;;;2.99;72.06;100648.53;5052227;28;20114;-93
2022/12/04 01:30:21;;;;;;;20.73;14.07;;;;;;;2.95;72.50;100646.06;5053079;28;20048;-93
2022/12/04 01:33:26;;;;;;;19.70;13.75;;;;;;;3.02;72.95;100637.28;5053317;28;20072;-93
2022/12/04 01:36:29;;;;;;;19.25;13.65;;;;;;;3.02;72.61;100635.56;5053040;28;20102;-93
2022/12/04 01:39:34;;;;;;;;;;;;;;;2.98;72.76;100639.09;5053277;28;20383;-93
2022/12/04 01:42:38;;;;;;;22.88;14.45;;;;;;;3.05;72.35;100641.56;5053438;28;19962;-93
2022/12/04 01:45:46;;;;;;;23.33;15.25;;;;;;;2.93;73.20;100635.72;5053351;28;20095;-93
2022/12/04 01:48:53;;;;;;;22.10;15.85;;;;;;;3.03;72.47;100636.41;5053923;28;20044;-95
2022/12/04 01:52:06;;;;;;;19.40;14.02;;;;;;;2.91;72.97;100632.34;5053668;28;20063;-95
2022/12/04 01:55:09;;;;;;;20.30;13.88;;;;;;;2.85;72.86;100632.47;5052935;28;20549;-91
2022/12/04 01:58:14;;;;;;;;;;;;;;;2.84;73.36;100635.94;5053051;28;20036;-93
2022/12/04 02:01:21;;;;;;;19.90;14.10;;;;;;;3.09;72.94;100636.28;5052606;28;20379;-94
2022/12/04 02:04:29;;;;;;;21.50;14.02;;;;;;;2.99;72.59;100627.88;5052773;28;20191;-94
2022/12/04 02:07:34;;;;;;;19.40;13.82;;;;;;;3.08;72.33;100623.41;5052899;28;20098;-91
2022/12/04 02:10:59;;;;;;;19.55;14.73;;;;;;;3.02;72.66;100622.66;5052660;28;20076;-90
2022/12/04 02:14:24;;;;;;;20.15;13.77;;;;;;;3.14;72.68;100631.88;5052412;28;20087;-90
2022/12/04 02:17:39;;;;;;;18.60;13.48;;;;;;;3.12;72.50;100638.81;5052007;28;20056;-89
2022/12/04 02:21:04;;;;;;;20.02;13.85;;;;;;;3.07;72.14;100626.88;5052148;28;20111;-89
2022/12/04 02:24:23;;;;;;;20.00;12.70;;;;;;;2.94;72.90;100641.78;5052256;28;20110;-89
2022/12/04 02:27:38;;;;;;;19.50;14.38;;;;;;;3.14;71.79;100633.63;5052401;28;20098;-91
2022/12/04 02:30:44;;;;;;;19.00;12.73;;;;;;;3.09;72.63;100632.84;5052186;28;20499;-92
2022/12/04 02:33:59;;;;;;;16.80;11.55;;;;;;;3.28;71.20;100636.78;5052074;28;20048;-92
2022/12/04 02:37:23;;;;;;;15.48;11.45;;;;;;;3.18;71.40;100651.63;5053073;28;20060;-92
2022/12/04 02:40:40;;;;;;;16.88;11.77;;;;;;;2.97;72.45;100658.06;5055297;28;20400;-92
2022/12/04 02:43:51;;;;;;;16.70;12.27;;;;;;;3.10;71.77;100655.25;5056090;28;20614;-92
2022/12/04 02:47:10;;;;;;;17.40;12.38;;;;;;;3.02;72.53;100652.78;5056253;28;20458;-93
2022/12/04 02:50:20;;;;;;;19.38;12.85;;;;;;;3.13;71.57;100647.44;5064077;28;20039;-93
2022/12/04 02:53:43;;;;;;;14.88;11.20;;;;;;;3.06;71.89;100651.00;5055833;28;20052;-93
2022/12/04 02:56:50;;;;;;;16.55;11.18;;;;;;;3.06;72.18;100641.50;5056380;28;20079;-94
2022/12/04 02:59:58;;;;;;;19.05;11.73;;;;;;;3.08;71.93;100644.09;5055555;28;20076;-93
2022/12/04 03:03:13;;;;;;;16.20;11.90;;;;;;;2.97;72.73;100637.41;5056563;28;20519;-95
2022/12/04 03:06:18;;;;;;;19.58;12.43;;;;;;;3.01;72.32;100633.88;5056792;28;20074;-95
2022/12/04 03:09:55;;;;;;;16.85;11.38;;;;;;;2.94;72.12;100634.03;5055558;28;20114;-95
2022/12/04 03:13:10;;;;;;;16.25;11.48;;;;;;;2.97;71.62;100636.56;5056321;28;20412;-95
2022/12/04 03:16:38;;;;;;;17.13;11.32;;;;;;;2.77;72.74;100639.50;5056331;28;20518;-94
2022/12/04 03:19:59;;;;;;;16.02;11.80;;;;;;;2.90;71.95;100640.94;5055085;28;20049;-94
2022/12/04 03:23:11;;;;;;;16.23;11.98;;;;;;;3.11;71.96;100644.03;5055977;28;20095;-94
2022/12/04 03:26:33;;;;;;;16.77;11.55;;;;;;;3.09;72.04;100635.44;5055760;28;20107;-91
2022/12/04 03:29:51;;;;;;;18.40;11.95;;;;;;;2.93;72.00;100640.06;5055092;28;20044;-91
2022/12/04 03:33:14;;;;;;;16.35;11.40;;;;;;;3.06;71.25;100633.75;5054502;28;20059;-91
2022/12/04 03:36:48;;;;;;;18.63;12.30;;;;;;;3.00;71.62;100639.06;5054615;28;20114;-89
2022/12/04 03:40:02;;;;;;;16.50;11.90;;;;;;;3.10;72.24;100638.00;5054348;28;20044;-89
2022/12/04 03:43:22;;;;;;;15.77;10.82;;;;;;;3.13;71.41;100637.09;5054378;28;20122;-89
2022/12/04 03:47:08;;;;;;;17.00;11.77;;;;;;;3.16;71.19;100637.91;5055045;28;20516;-90
2022/12/04 03:50:44;;;;;;;16.73;12.15;;;;;;;3.13;71.64;100634.53;5054421;28;20047;-91
2022/12/04 03:53:51;;;;;;;15.32;10.98;;;;;;;2.95;71.77;100633.97;5054428;28;20121;-91
2022/12/04 03:57:05;;;;;;;16.80;10.85;;;;;;;2.96;71.95;100633.09;5054323;28;20115;-90
2022/12/04 04:00:16;;;;;;;16.50;11.68;;;;;;;3.03;72.17;100629.53;5054159;28;20140;-91
2022/12/04 04:03:35;;;;;;;18.02;12.38;;;;;;;2.93;72.70;100627.97;5053456;28;20087;-92
2022/12/04 04:06:52;;;;;;;15.40;11.38;;;;;;;2.98;72.13;100621.00;5054002;28;20048;-89
2022/12/04 04:09:58;;;;;;;16.00;11.40;;;;;;;3.08;72.09;100613.94;5054160;28;20545;-91
2022/12/04 04:26:57;;;;;;;16.13;12.10;;;;;;;3.06;72.16;100618.25;5054205;28;20095;-93
2022/12/04 04:30:01;;;;;;;16.52;11.90;;;;;;;3.11;70.59;100623.34;5053834;28;20511;-92
2022/12/04 04:33:16;;;;;;;15.38;11.45;;;;;;;3.02;71.20;100625.22;5053882;28;20411;-93
2022/12/04 04:36:43;;;;;;;15.85;11.20;;;;;;;2.95;71.69;100628.81;5061080;28;20118;-93
2022/12/04 04:39:57;;;;;;;16.00;11.45;;;;;;;2.98;71.83;100628.75;5053889;28;20067;-92
2022/12/04 04:43:10;;;;;;;17.02;11.60;;;;;;;3.03;72.15;100629.53;5053643;28;20099;-90
2022/12/04 04:46:21;;;;;;;17.83;12.32;;;;;;;2.82;71.63;100637.69;5053521;28;20078;-91
2022/12/04 04:49:36;;;;;;;16.85;12.30;;;;;;;2.74;73.26;100629.22;5052294;28;20075;-90
2022/12/04 04:52:45;;;;;;;15.60;11.55;;;;;;;2.92;72.14;100626.28;5053239;28;20530;-89
2022/12/04 04:55:49;;;;;;;15.40;10.88;;;;;;;2.97;71.54;100631.38;5053439;28;20052;-90
2022/12/04 04:58:58;;;;;;;17.30;11.63;;;;;;;3.03;71.52;100629.53;5052931;28;20095;-90
2022/12/04 05:02:03;;;;;;;14.88;11.13;;;;;;;2.89;72.83;100631.50;5052996;28;20462;-90
2022/12/04 05:05:08;;;;;;;19.27;12.20;;;;;;;2.92;72.40;100626.28;5053056;28;20040;-90
2022/12/04 05:08:13;;;;;;;16.38;11.30;;;;;;;2.93;72.50;100624.56;5053124;28;20090;-94
2022/12/04 05:11:19;;;;;;;16.83;11.65;;;;;;;2.87;72.93;100635.88;5052999;28;20048;-89
2022/12/04 05:14:25;;;;;;;18.27;12.45;;;;;;;3.06;72.14;100633.75;5052715;28;20064;-89
2022/12/04 05:17:29;;;;;;;16.50;11.25;;;;;;;2.96;71.25;100635.69;5052629;28;20137;-90
2022/12/04 05:20:32;;;;;;;19.45;14.00;;;;;;;2.97;71.26;100632.22;5052971;28;20052;-92
2022/12/04 05:23:39;;;;;;;16.35;11.55;;;;;;;2.97;71.55;100632.22;5052862;28;20091;-92
2022/12/04 05:26:43;;;;;;;18.40;12.95;;;;;;;2.77;71.71;100626.56;5053256;28;20154;-93
2022/12/04 05:29:46;;;;;;;19.75;13.32;;;;;;;2.90;71.13;100625.47;5052453;28;20039;-92
2022/12/04 05:32:51;;;;;;;18.90;12.70;;;;;;;2.79;71.67;100624.81;5052656;28;20056;-92
2022/12/04 05:36:01;;;;;;;19.40;13.45;;;;;;;2.99;71.64;100620.13;5052972;28;20048;-92
2022/12/04 05:39:08;;;;;;;19.13;12.95;;;;;;;2.65;72.11;100625.09;5052753;28;20051;-91
2022/12/04 05:42:12;;;;;;;18.27;12.57;;;;;;;2.63;72.85;100628.56;5052599;28;20048;-91
2022/12/04 05:45:18;;;;;;;18.83;13.20;;;;;;;2.75;71.66;100629.19;5052906;28;20503;-91
2022/12/04 05:48:23;;;;;;;18.13;13.10;;;;;;;2.80;71.58;100626.50;5053117;28;20561;-95
2022/12/04 05:55:08;;;;;;;17.77;12.70;;;;;;;2.82;71.88;100623.94;5052567;28;20182;-89
2022/12/04 05:58:15;;;;;;;18.02;13.50;;;;;;;2.86;72.41;100641.91;5053154;28;20048;-88
2022/12/04 06:01:21;;;;;;;18.73;12.90;;;;;;;2.84;71.75;100635.94;5053026;28;20047;-85
2022/12/04 06:04:24;;;;;;;20.25;14.55;;;;;;;2.75;72.09;100631.78;4640463;28;9999825;-88
2022/12/04 06:07:27;;;;;;;18.98;12.60;;;;;;;2.82;71.93;100631.66;4970997;28;20037;-91
2022/12/04 06:10:37;;;;;;;16.80;11.77;;;;;;;2.85;71.71;100635.03;4970648;28;20412;-90
2022/12/04 06:13:42;;;;;;;17.50;12.55;;;;;;;2.70;72.38;100640.47;4974535;28;20049;-90
2022/12/04 06:16:47;;;;;;;16.80;12.25;;;;;;;2.77;71.60;100635.16;4974186;28;20069;-91
2022/12/04 06:19:52;;;;;;;16.63;12.05;;;;;;;2.84;71.39;100645.38;4977899;28;20145;-89
2022/12/04 06:22:56;;;;;;;16.75;11.65;;;;;;;2.70;71.47;100645.66;4974294;28;20053;-89
2022/12/04 06:26:04;;;;;;;16.73;12.23;;;;;;;2.98;70.61;100646.00;4974384;28;20093;-89
2022/12/04 06:29:11;;;;;;;16.70;11.23;;;;;;;2.86;71.28;100638.47;4973595;28;20046;-88
2022/12/04 06:32:14;;;;;;;17.60;13.10;;;;;;;2.75;71.16;100646.44;4973795;28;20121;-89
2022/12/04 06:35:17;;;;;;;19.83;13.70;;;;;;;2.69;71.81;100652.53;4973485;28;20046;-89
2022/12/04 06:38:21;;;;;;;19.70;15.63;;;;;;;2.54;72.45;100658.81;4974005;28;20085;-88
2022/12/04 06:41:30;;;;;;;20.13;12.98;;;;;;;2.39;72.53;100647.91;4970884;28;20081;-89
2022/12/04 06:44:34;;;;;;;20.02;15.05;;;;;;;2.48;72.50;100653.75;4972805;28;20142;-89
2022/12/04 06:47:39;;;;;;;17.52;13.63;;;;;;;2.44;73.28;100657.28;4974617;28;20129;-88
2022/12/04 06:50:42;;;;;;;16.20;12.63;;;;;;;2.63;72.82;100651.81;4974198;28;20053;-89
2022/12/04 06:53:48;;;;;;;18.10;13.00;;;;;;;2.62;72.75;100655.28;4973534;28;20413;-88
2022/12/04 06:56:52;;;;;;;16.50;12.38;;;;;;;2.61;72.56;100669.88;4973759;28;20096;-88
2022/12/04 06:59:58;;;;;;;17.50;11.57;;;;;;;2.62;72.65;100670.75;4973433;28;20046;-91
2022/12/04 07:03:04;;;;;;;18.10;11.73;;;;;;;2.72;72.53;100670.56;4973050;28;20100;-89
2022/12/04 07:06:26;;;;;;;18.48;12.93;;;;;;;2.66;72.30;100657.75;4973330;28;20137;-88
2022/12/04 07:09:29;;;;;;;23.90;17.38;;;;;;;2.64;72.16;100663.81;4972640;28;20104;-88
2022/12/04 07:12:33;;;;;;;;;;;;;;;2.59;73.08;100673.41;4973937;28;20050;-88
2022/12/04 07:15:40;;;;;;;18.67;13.45;;;;;;;2.60;72.57;100665.59;4983496;28;19961;-86
2022/12/04 07:18:52;;;;;;;19.77;15.20;;;;;;;2.74;72.10;100665.34;4972913;28;20062;-85
2022/12/04 07:21:56;;;;;;;17.25;12.00;;;;;;;2.63;72.56;100664.72;4973284;28;20050;-86
2022/12/04 07:25:04;;;;;;;17.90;13.05;;;;;;;2.62;72.77;100657.84;4973079;28;20038;-87
2022/12/04 07:28:13;;;;;;;15.07;11.82;;;;;;;2.60;72.95;100659.59;4972592;28;20484;-85
2022/12/04 07:31:27;;;;;;;21.23;15.30;;;;;;;2.50;73.86;100657.19;4982759;23;20072;-88
2022/12/04 07:34:35;;;;;;;26.13;18.92;;;;;;;2.56;73.51;100656.22;4992215;28;20412;-89
2022/12/04 07:37:41;;;;;;;19.10;13.35;;;;;;;2.41;74.65;100654.75;4987205;28;20053;-88
2022/12/04 07:40:48;;;;;;;30.27;20.08;;;;;;;2.61;73.29;100653.56;5001268;28;20083;-89
2022/12/04 07:43:53;;;;;;;18.13;12.82;;;;;;;2.37;73.85;100663.44;4968440;28;20408;-87
2022/12/04 07:46:57;;;;;;;19.15;12.02;;;;;;;2.23;74.87;100658.47;4968281;28;20513;-87
2022/12/04 07:50:03;;;;;;;15.80;10.70;;;;;;;2.29;74.44;100653.22;4972874;28;20065;-89
2022/12/04 07:53:08;;;;;;;36.22;21.63;;;;;;;2.52;74.56;100665.75;4988240;28;20045;-90
2022/12/04 07:56:14;;;;;;;30.55;19.63;;;;;;;2.48;73.56;100658.06;4988466;28;20048;-89
2022/12/04 07:59:19;;;;;;;22.02;14.60;;;;;;;2.55;73.33;100651.91;4990272;28;20423;-88
2022/12/04 08:02:28;;;;;;;18.48;12.35;;;;;;;2.52;73.87;100650.28;4982688;28;20405;-88
2022/12/04 08:05:32;;;;;;;17.67;12.50;;;;;;;2.59;73.59;100645.00;4970730;28;20516;-87
2022/12/04 08:09:09;;;;;;;16.98;12.00;;;;;;;2.48;73.59;100648.59;4967855;28;20096;-90
2022/12/04 08:12:24;;;;;;;18.42;12.15;;;;;;;2.45;74.17;100648.66;4963696;28;20050;-86
2022/12/04 08:15:55;;;;;;;16.92;10.75;;;;;;;2.51;74.28;100651.13;5008088;28;20037;-87
2022/12/04 08:19:47;;;;;;;;;;;;;;;;;;;;;
2022/12/04 08:23:16;;;;;;;17.90;12.60;;;;;;;2.55;73.59;100655.38;4962857;28;20453;-86
2022/12/04 08:27:29;;;;;;;16.42;12.57;;;;;;;2.64;73.73;100646.59;4968002;28;20135;-85
2022/12/04 08:31:21;;;;;;;17.50;11.52;;;;;;;2.64;74.29;100643.16;4961632;28;20444;-86
2022/12/04 08:38:19;;;;;;;17.45;11.43;;;;;;;2.73;73.43;100654.19;4626546;28;10000129;-88
2022/12/04 08:41:26;;;;;;;20.73;12.50;;;;;;;2.74;73.69;100652.44;4962908;28;20274;-86
2022/12/04 08:44:30;;;;;;;17.45;12.90;;;;;;;2.78;73.41;100654.97;4946556;28;20050;-86
2022/12/04 08:47:36;;;;;;;19.13;13.23;;;;;;;2.53;75.01;100659.69;4963675;28;20066;-87
2022/12/04 08:50:53;;;;;;;17.27;12.27;;;;;;;2.75;74.54;100654.19;4627834;28;9999883;-86
2022/12/04 08:54:12;;;;;;;17.88;13.45;;;;;;;2.81;74.31;100669.56;4983818;28;20465;-86
2022/12/04 08:57:42;;;;;;;19.70;12.40;;;;;;;2.79;74.55;100664.41;4964680;28;20050;-84
2022/12/04 09:05:10;;;;;;;19.75;12.88;;;;;;;2.78;74.94;100662.72;4989201;28;20508;-87
2022/12/04 09:08:31;;;;;;;16.70;12.10;;;;;;;2.94;74.54;100660.69;4965439;28;20408;-86
2022/12/04 09:12:46;;;;;;;21.02;13.65;;;;;;;2.94;74.56;100662.44;5027460;28;20057;-83
2022/12/04 09:15:57;;;;;;;20.48;14.25;;;;;;;3.04;74.17;100661.38;4946488;28;20039;-85
2022/12/04 09:19:02;;;;;;;18.38;12.60;;;;;;;2.89;74.47;100659.91;4983188;28;20130;-79
2022/12/04 09:22:07;;;;;;;20.42;13.68;;;;;;;2.82;74.90;100648.00;4985561;28;20053;-79
2022/12/04 09:25:14;;;;;;;19.48;12.85;;;;;;;2.83;75.78;100652.28;4985828;28;20045;-78
2022/12/04 09:28:18;;;;;;;20.35;12.93;;;;;;;2.70;76.24;100645.66;4976649;28;20057;-80
2022/12/04 09:31:23;;;;;;;19.20;12.30;;;;;;;2.75;76.31;100642.13;4986419;28;20046;-78
2022/12/04 09:34:29;;;;;;;20.05;13.40;;;;;;;2.94;75.70;100646.94;4984963;28;20512;-79
2022/12/04 09:37:35;;;;;;;22.02;14.13;;;;;;;2.93;75.69;100648.66;4985721;28;20313;-79
2022/12/04 09:40:51;;;;;;;20.70;13.80;;;;;;;2.96;75.46;100640.84;4985406;28;20069;-79
2022/12/04 09:44:03;;;;;;;21.15;13.50;;;;;;;3.00;75.62;100642.50;4947626;29;20612;-80
2022/12/04 09:47:28;;;;;;;20.05;12.55;;;;;;;2.89;75.74;100638.41;4949612;28;20057;-85
2022/12/04 09:50:43;;;;;;;21.98;13.25;;;;;;;2.75;76.51;100643.84;4950249;29;20449;-77
2022/12/04 09:54:07;;;;;;;21.10;13.13;;;;;;;2.80;77.04;100644.59;4965562;28;20453;-85
2022/12/04 09:57:21;;;;;;;22.27;13.13;;;;;;;2.98;76.61;100646.84;4969001;28;20049;-85
2022/12/04 10:00:35;;;;;;;17.33;12.20;;;;;;;3.01;75.90;100646.78;4969270;28;20093;-82
2022/12/04 10:03:49;;;;;;;19.80;13.75;;;;;;;2.99;76.27;100643.38;4969438;28;20133;-84
2022/12/04 10:07:21;;;;;;;20.27;13.38;;;;;;;3.06;76.58;100635.50;4970217;28;20074;-84
2022/12/04 10:10:28;;;;;;;22.10;12.90;;;;;;;2.95;76.78;100623.66;4968126;28;20042;-84
2022/12/04 10:13:57;;;;;;;20.88;12.90;;;;;;;3.05;76.48;100620.91;4969187;28;20402;-84
2022/12/04 10:17:40;;;;;;;21.15;14.15;;;;;;;3.06;76.80;100615.69;4969131;28;20278;-84
2022/12/04 10:21:10;;;;;;;18.55;12.98;;;;;;;2.99;76.80;100614.09;4930145;28;20152;-85
2022/12/04 10:28:35;;;;;;;;;;;;;;;3.02;77.70;100607.16;4972122;28;20046;-88
2022/12/04 10:32:39;;;;;;;21.05;14.05;;;;;;;2.71;78.44;100613.78;4968702;28;20323;-89
2022/12/04 10:36:08;;;;;;;21.58;14.65;;;;;;;2.76;77.92;100611.97;4971629;28;20107;-88
2022/12/04 10:39:34;;;;;;;19.92;12.80;;;;;;;2.85;78.69;100616.97;4983792;28;20122;-87
2022/12/04 10:42:58;;;;;;;23.15;13.82;;;;;;;2.97;78.33;100601.25;4968918;28;20159;-87
2022/12/04 10:46:23;;;;;;;18.58;12.65;;;;;;;3.00;78.13;100593.44;4968757;28;20160;-83
2022/12/04 10:49:29;;;;;;;19.88;12.55;;;;;;;3.12;77.18;100594.03;4968732;28;20054;-87
2022/12/04 10:52:40;;;;;;;20.92;12.65;;;;;;;3.11;77.37;100598.38;4968811;28;20113;-87
2022/12/04 10:56:23;;;;;;;20.08;13.25;;;;;;;3.19;78.06;100595.63;4968822;28;20053;-87
2022/12/04 11:00:00;;;;;;;16.70;11.95;;;;;;;3.25;77.67;100587.72;4986161;28;20107;-88
2022/12/04 11:03:35;;;;;;;18.88;12.52;;;;;;;3.22;77.54;100591.25;4988164;28;20089;-87
2022/12/04 11:07:07;;;;;;;19.40;11.90;;;;;;;3.18;77.91;100588.75;4987531;28;20048;-87
2022/12/04 11:17:02;;;;;;;20.77;13.05;;;;;;;3.38;77.26;100572.81;4914670;28;20538;-89
2022/12/04 11:21:58;;;;;;;20.60;12.73;;;;;;;3.39;76.94;100567.63;4950256;28;20054;-89
2022/12/04 11:30:24;;;;;;;23.25;13.95;;;;;;;3.32;77.47;100562.59;4948770;28;20545;-89
2022/12/04 11:38:37;;;;;;;24.33;14.55;;;;;;;3.35;77.58;100547.03;4977576;28;20054;-90
2022/12/04 11:42:18;;;;;;;24.13;14.20;;;;;;;3.24;77.76;100549.88;4929555;29;20093;-89
2022/12/04 11:50:29;;;;;;;21.75;13.90;;;;;;;3.28;78.48;100538.56;4927238;29;20090;-88
2022/12/04 12:02:38;;;;;;;26.85;15.73;;;;;;;3.36;78.13;100533.25;4985277;22;20453;-68
2022/12/04 12:05:48;;;;;;;23.58;15.30;;;;;;;3.32;78.88;100535.06;4954611;28;20057;-72
2022/12/04 12:09:10;;;;;;;23.83;14.05;;;;;;;3.30;78.33;100528.22;4950444;28;20042;-76
2022/12/04 12:12:46;;;;;;;24.85;14.38;;;;;;;3.40;78.16;100535.72;4958028;28;20097;-76
2022/12/04 12:16:38;;;;;;;21.63;15.35;;;;;;;3.55;77.65;100537.13;4958092;28;20070;-74
2022/12/04 12:19:43;;;;;;;23.25;15.48;;;;;;;3.50;77.97;100546.69;4947494;28;20396;-75
2022/12/04 12:23:29;;;;;;;22.17;13.65;;;;;;;3.58;76.84;100543.97;4947980;29;20058;-74
2022/12/04 12:26:53;;;;;;;23.92;15.50;;;;;;;3.69;76.69;100531.59;4947377;29;20066;-75
2022/12/04 12:30:44;;;;;;;21.05;13.75;;;;;;;3.61;76.97;100525.78;4946879;29;20577;-74
2022/12/04 12:34:08;;;;;;;22.05;14.90;;;;;;;3.53;77.27;100527.69;4947730;28;20507;-75
2022/12/04 12:37:38;;;;;;;21.02;13.25;;;;;;;3.46;77.09;100527.81;4951086;29;20066;-73
2022/12/04 12:41:33;;;;;;;20.35;14.27;;;;;;;3.32;77.71;100545.41;4951956;29;20050;-74
2022/12/04 12:45:01;;;;;;;22.92;13.80;;;;;;;3.57;77.11;100558.59;4950716;29;20089;-75
2022/12/04 12:48:41;;;;;;;21.52;15.02;;;;;;;3.50;77.18;100565.63;4960940;28;20058;-75
2022/12/04 12:51:47;;;;;;;20.73;14.15;;;;;;;3.53;77.19;100553.53;5032858;28;20048;-74
2022/12/04 12:55:13;;;;;;;21.92;13.48;;;;;;;3.56;77.42;100558.63;5033229;28;20578;-75
2022/12/04 12:58:36;;;;;;;20.90;14.18;;;;;;;3.67;76.92;100556.63;5032555;28;20465;-75
2022/12/04 13:01:57;;;;;;;18.97;12.90;;;;;;;3.61;77.17;100549.06;5031604;28;20418;-75
2022/12/04 13:05:08;;;;;;;22.30;13.67;;;;;;;3.56;77.01;100537.97;4993436;28;20061;-74
2022/12/04 13:08:17;;;;;;;21.08;13.77;;;;;;;3.63;76.47;100527.41;4992469;28;20104;-74
2022/12/04 13:11:24;;;;;;;18.70;12.90;;;;;;;3.53;76.76;100528.53;4993210;28;20096;-74
2022/12/04 13:14:27;;;;;;;19.50;13.40;;;;;;;3.64;76.60;100520.53;4993331;28;20498;-74
2022/12/04 13:17:36;;;;;;;19.75;12.98;;;;;;;3.45;77.03;100520.97;4992936;28;20045;-75
2022/12/04 13:20:50;;;;;;;19.50;13.23;;;;;;;3.52;77.73;100526.00;4992355;28;20049;-74
2022/12/04 13:24:13;;;;;;;18.90;12.40;;;;;;;3.43;76.72;100525.31;4992937;28;20137;-74
2022/12/04 13:27:45;;;;;;;19.75;12.18;;;;;;;3.43;76.82;100512.38;4991441;28;20177;-74
2022/12/04 13:30:55;;;;;;;19.40;13.13;;;;;;;3.53;77.06;100513.03;4992078;28;20105;-75
2022/12/04 13:34:38;;;;;;;17.63;12.20;;;;;;;3.48;76.90;100507.97;4992095;28;20049;-74
2022/12/04 13:38:06;;;;;;;18.17;12.05;;;;;;;3.31;77.77;100515.25;4991112;28;20053;-74
2022/12/04 13:41:21;;;;;;;19.00;12.80;;;;;;;3.31;77.71;100514.41;4992675;28;20149;-74
2022/12/04 13:44:26;;;;;;;21.38;15.32;;;;;;;3.62;76.55;100523.16;4992566;28;20052;-74
2022/12/04 13:47:33;;;;;;;21.23;13.75;;;;;;;3.71;76.16;100522.09;4992514;28;20416;-74
2022/12/04 13:50:38;;;;;;;17.75;12.32;;;;;;;3.64;76.21;100520.53;4992552;28;20037;-74
2022/12/04 13:53:42;;;;;;;18.92;13.18;;;;;;;3.66;76.55;100513.56;4992702;28;20049;-74
2022/12/04 13:56:50;;;;;;;21.67;13.50;;;;;;;3.60;76.27;100513.72;4992439;28;20041;-74
2022/12/04 14:00:06;;;;;;;21.42;13.55;;;;;;;3.75;75.93;100505.59;4990888;28;20053;-73
2022/12/04 14:03:45;;;;;;;22.15;13.48;;;;;;;3.59;76.19;100512.03;5006724;28;20056;-75
2022/12/04 14:06:55;;;;;;;19.90;14.27;;;;;;;3.55;76.42;100505.25;5031717;28;20103;-75
2022/12/04 14:10:25;;;;;;;19.80;14.90;;;;;;;3.59;76.78;100502.53;5031000;28;20055;-74
2022/12/04 14:13:51;;;;;;;19.27;12.25;;;;;;;3.66;75.97;100488.56;5031672;28;20132;-74
2022/12/04 14:16:57;;;;;;;18.88;12.88;;;;;;;3.74;76.26;100496.16;5031681;28;20052;-74
2022/12/04 14:20:24;;;;;;;20.30;12.57;;;;;;;3.73;76.28;100491.84;5031483;28;20542;-75
2022/12/04 14:23:40;;;;;;;18.85;13.25;;;;;;;3.59;77.04;100486.19;5030688;28;20040;-75
2022/12/04 14:26:50;;;;;;;16.48;11.80;;;;;;;3.49;77.14;100491.56;5031545;28;20130;-75
2022/12/04 14:29:57;;;;;;;19.38;12.55;;;;;;;3.64;75.90;100482.59;5031659;28;20044;-75
2022/12/04 14:33:20;;;;;;;20.58;13.27;;;;;;;3.59;76.80;100494.78;5033587;28;20060;-75
2022/12/04 14:36:27;;;;;;;22.33;13.00;;;;;;;3.46;77.75;100494.22;5035274;28;20057;-75
2022/12/04 14:39:35;;;;;;;17.33;12.65;;;;;;;3.59;77.03;100494.78;5035220;28;20302;-75
2022/12/04 14:42:39;;;;;;;19.15;13.20;;;;;;;3.61;77.62;100489.59;5033983;28;20076;-74
2022/12/04 14:46:24;;;;;;;20.05;14.07;;;;;;;3.67;76.04;100492.00;5034487;28;20140;-75
2022/12/04 14:49:34;;;;;;;20.55;12.77;;;;;;;3.70;76.47;100495.38;5034788;28;20183;-74
2022/12/04 14:52:58;;;;;;;19.58;13.23;;;;;;;3.59;76.50;100491.34;5034797;28;20469;-74
2022/12/04 14:56:24;;;;;;;22.80;14.27;;;;;;;3.68;76.12;100491.13;4337146;28;10000710;-74
2022/12/04 14:59:40;;;;;;;20.20;13.10;;;;;;;3.74;75.87;100485.81;5031212;28;20130;-74
2022/12/04 15:02:45;;;;;;;18.15;12.18;;;;;;;3.73;76.11;100482.38;5030447;28;20064;-74
2022/12/04 15:05:50;;;;;;;19.63;12.20;;;;;;;3.85;75.87;100485.53;5031406;28;20073;-74
2022/12/04 15:12:32;;;;;;;19.55;13.55;;;;;;;3.58;77.18;100484.50;5031279;28;20091;-74
2022/12/04 15:15:37;;;;;;;21.65;14.35;;;;;;;3.67;76.60;100479.94;5031393;28;20099;-75
2022/12/04 15:18:56;;;;;;;18.55;12.88;;;;;;;3.69;76.35;100490.22;5031653;28;20119;-76
2022/12/04 15:22:03;;;;;;;20.52;13.55;;;;;;;3.71;76.45;100489.31;5032085;28;20091;-74
2022/12/04 15:25:27;;;;;;;18.80;13.27;;;;;;;3.77;76.62;100492.66;5032049;28;20048;-75
2022/12/04 15:28:45;;;;;;;23.70;15.45;;;;;;;3.66;76.17;100495.47;5033088;28;20076;-74
2022/12/04 15:31:55;;;;;;;21.08;14.68;;;;;;;3.45;77.48;100502.88;5031719;28;20064;-75
2022/12/04 15:35:08;;;;;;;21.73;15.10;;;;;;;3.68;76.74;100501.47;5032438;28;20087;-76
2022/12/04 15:38:14;;;;;;;23.60;16.42;;;;;;;3.72;76.32;100503.94;5032011;28;20056;-76
2022/12/04 15:41:36;;;;;;;22.88;15.88;;;;;;;3.57;77.59;100513.78;5032299;28;20094;-75
2022/12/04 15:45:20;;;;;;;22.55;15.68;;;;;;;3.67;76.75;100515.25;5031302;28;20056;-75
2022/12/04 15:48:29;;;;;;;20.80;14.80;;;;;;;3.69;76.78;100518.69;5030762;28;20047;-77
2022/12/04 15:51:33;;;;;;;21.00;15.32;;;;;;;3.66;76.62;100513.56;5032786;28;20438;-75
2022/12/04 15:54:36;;;;;;;;;;;;;;;3.68;76.85;100514.41;4684892;28;10001362;-75
2022/12/04 15:57:51;;;;;;;19.88;13.45;;;;;;;3.61;77.39;100515.44;5031391;28;20604;-76
2022/12/04 16:01:11;;;;;;;20.83;14.43;;;;;;;3.82;76.47;100514.91;5030822;28;20522;-75